Time;durP1;ratioP1;P1;durP2;ratioP2;P2;SDS_P1;SDS_P2;PMS_P1;PMS_P2;Temp;Humidity;BMP_temperature;BMP_pressure;BME280_temperature;BME280_humidity;BME280_pressure;Samples;Min_cycle;Max_cycle;Signal;HPM_P1;HPM_P2
2022/06/01 00:01:02;;;;;;;0.00;0.00;;;12.90;99.90;;;;;;5084189;28;20065;-72
2022/06/01 00:03:37;;;;;;;1.00;1.00;;;13.00;99.90;;;;;;5082301;28;20017;-71
2022/06/01 00:06:03;;;;;;;0.00;0.00;;;13.20;99.90;;;;;;5083316;28;20485;-72
2022/06/01 00:08:30;;;;;;;2.90;2.28;;;13.30;99.90;;;;;;5088007;28;20031;-73
2022/06/01 00:10:57;;;;;;;0.00;0.00;;;13.50;99.90;;;;;;5085841;28;20139;-72
2022/06/01 00:13:23;;;;;;;0.00;0.00;;;13.80;99.90;;;;;;5084921;28;20097;-71
2022/06/01 00:15:50;;;;;;;0.00;0.00;;;14.00;99.90;;;;;;5085680;28;20024;-72
2022/06/01 00:18:16;;;;;;;0.00;0.00;;;14.10;99.90;;;;;;5083676;28;20031;-71
2022/06/01 00:20:42;;;;;;;0.00;0.00;;;14.50;99.90;;;;;;5083106;28;20380;-72
2022/06/01 00:23:08;;;;;;;0.00;0.00;;;14.80;99.90;;;;;;5083655;28;20024;-73
2022/06/01 00:25:35;;;;;;;0.00;0.00;;;15.50;99.90;;;;;;5084727;28;20023;-73
2022/06/01 00:28:01;;;;;;;0.00;0.00;;;16.50;99.90;;;;;;5082860;28;20032;-72
2022/06/01 00:30:29;;;;;;;0.00;0.00;;;17.30;99.90;;;;;;5079610;28;20411;-73
2022/06/01 00:32:55;;;;;;;0.00;0.00;;;18.20;99.90;;;;;;5082714;28;20477;-72
2022/06/01 00:35:23;;;;;;;0.00;0.00;;;19.10;99.90;;;;;;5066474;28;20033;-71
2022/06/01 00:37:50;;;;;;;0.00;0.00;;;20.00;99.90;;;;;;5087398;28;20020;-71
2022/06/01 00:40:19;;;;;;;0.00;0.00;;;21.20;99.90;;;;;;5087301;28;20119;-73
2022/06/01 00:42:49;;;;;;;0.00;0.00;;;22.10;99.90;;;;;;5085156;28;20377;-73
2022/06/01 00:45:18;;;;;;;0.00;0.00;;;22.40;98.80;;;;;;5084335;28;20115;-71
2022/06/01 00:47:44;;;;;;;0.00;0.00;;;23.40;91.70;;;;;;5086276;28;20323;-73
2022/06/01 00:50:28;;;;;;;0.00;0.00;;;24.20;85.20;;;;;;5078752;28;20032;-75
2022/06/01 00:53:25;;;;;;;0.00;0.00;;;24.60;83.80;;;;;;5082627;28;20040;-73
2022/06/01 00:55:59;;;;;;;0.00;0.00;;;24.80;79.60;;;;;;5084287;28;20139;-72
2022/06/01 00:58:36;;;;;;;0.00;0.00;;;25.80;70.50;;;;;;5091274;28;20032;-72
2022/06/01 01:01:04;;;;;;;0.95;0.95;;;25.70;67.80;;;;;;5087964;28;20044;-73
2022/06/01 01:03:36;;;;;;;0.35;0.35;;;25.80;64.00;;;;;;5081157;28;20043;-74
2022/06/01 01:06:14;;;;;;;0.10;0.10;;;25.10;64.00;;;;;;5086942;28;20051;-72
2022/06/01 01:08:41;;;;;;;0.00;0.00;;;24.90;62.30;;;;;;5086454;28;20487;-72
2022/06/01 01:11:09;;;;;;;0.00;0.00;;;24.00;64.10;;;;;;5087328;28;20103;-73
2022/06/01 01:13:37;;;;;;;5.80;1.13;;;23.80;63.10;;;;;;5082549;28;20042;-72
2022/06/01 01:16:04;;;;;;;0.55;0.32;;;23.00;64.60;;;;;;5084589;28;20119;-72
2022/06/01 01:18:41;;;;;;;0.85;0.85;;;22.50;65.70;;;;;;5077611;28;20035;-73
2022/06/01 01:21:10;;;;;;;0.65;0.40;;;22.40;66.30;;;;;;5064629;28;20024;-73
2022/06/01 01:24:00;;;;;;;0.20;0.20;;;22.00;67.90;;;;;;5083914;28;20070;-73
2022/06/01 01:26:28;;;;;;;0.55;0.55;;;21.80;69.10;;;;;;5084291;28;20016;-72
2022/06/01 01:28:54;;;;;;;0.55;0.40;;;21.30;70.50;;;;;;5082781;28;20024;-73
2022/06/01 01:31:25;;;;;;;1.38;0.45;;;21.10;72.10;;;;;;5084550;28;20082;-74
2022/06/01 01:33:53;;;;;;;0.65;0.30;;;20.90;74.20;;;;;;5087132;28;20063;-74
2022/06/01 01:36:28;;;;;;;0.10;0.10;;;21.00;71.20;;;;;;5063678;28;20524;-73
2022/06/01 01:39:14;;;;;;;0.05;0.05;;;21.10;72.80;;;;;;5084056;28;20036;-73
2022/06/01 01:41:44;;;;;;;0.30;0.30;;;21.40;72.50;;;;;;5089847;28;20174;-74
2022/06/01 01:44:20;;;;;;;0.00;0.00;;;21.70;72.80;;;;;;5090988;28;20031;-73
2022/06/01 01:46:50;;;;;;;5.47;0.93;;;21.70;72.50;;;;;;5088927;28;20027;-73
2022/06/01 01:49:22;;;;;;;0.00;0.00;;;22.10;70.30;;;;;;5093523;28;20024;-73
2022/06/01 01:51:51;;;;;;;0.57;0.25;;;22.40;68.50;;;;;;5083981;28;20082;-72
2022/06/01 01:54:57;;;;;;;0.00;0.00;;;22.50;67.10;;;;;;5090807;28;20380;-72
2022/06/01 01:57:53;;;;;;;0.08;0.08;;;23.00;67.70;;;;;;5068031;28;20071;-72
2022/06/01 02:00:38;;;;;;;0.00;0.00;;;23.40;65.10;;;;;;5087940;28;20072;-71
2022/06/01 02:03:22;;;;;;;0.88;0.50;;;23.40;64.10;;;;;;5092405;28;20030;-73
2022/06/01 02:06:12;;;;;;;0.40;0.30;;;23.60;62.20;;;;;;5086001;28;20059;-73
2022/06/01 02:08:48;;;;;;;0.00;0.00;;;23.20;63.80;;;;;;5084069;28;20028;-74
2022/06/01 02:14:10;;;;;;;0.55;0.32;;;23.60;62.20;;;;;;5075911;28;20596;-73
2022/06/01 02:16:49;;;;;;;0.00;0.00;;;23.60;60.20;;;;;;5070287;28;20383;-74
2022/06/01 02:19:24;;;;;;;0.00;0.00;;;23.50;61.20;;;;;;5086197;28;20016;-74
2022/06/01 02:21:54;;;;;;;0.00;0.00;;;24.20;60.10;;;;;;5089671;28;20024;-73
2022/06/01 02:24:21;;;;;;;0.32;0.32;;;24.90;58.50;;;;;;5086055;28;20024;-73
2022/06/01 02:26:49;;;;;;;0.10;0.10;;;25.30;57.00;;;;;;5085970;28;20035;-73
2022/06/01 02:29:25;;;;;;;0.00;0.00;;;24.90;56.40;;;;;;5085735;28;20028;-73
2022/06/01 02:31:52;;;;;;;2.63;0.68;;;25.10;57.70;;;;;;5083930;28;20104;-73
2022/06/01 02:34:19;;;;;;;0.55;0.50;;;24.70;56.10;;;;;;5083325;28;20033;-73
2022/06/01 02:36:45;;;;;;;0.10;0.10;;;24.40;57.40;;;;;;5086475;28;20028;-73
2022/06/01 02:39:15;;;;;;;1.77;0.95;;;24.70;58.50;;;;;;5088215;28;20024;-73
2022/06/01 02:44:26;;;;;;;0.43;0.32;;;26.10;56.50;;;;;;5080083;28;20036;-74
2022/06/01 02:46:53;;;;;;;0.20;0.20;;;25.60;57.10;;;;;;5081524;28;20035;-74
2022/06/01 02:49:19;;;;;;;0.20;0.20;;;24.90;57.50;;;;;;5086069;28;20032;-73
2022/06/01 02:51:46;;;;;;;0.22;0.20;;;24.50;58.20;;;;;;5082758;28;20035;-73
2022/06/01 02:54:12;;;;;;;6.22;0.60;;;24.00;59.00;;;;;;5081887;28;20061;-74
2022/06/01 02:56:39;;;;;;;0.50;0.30;;;23.60;58.90;;;;;;5081295;28;20107;-73
2022/06/01 02:59:05;;;;;;;0.40;0.38;;;23.70;60.60;;;;;;5079323;28;20029;-73
2022/06/01 03:01:32;;;;;;;0.22;0.13;;;23.90;60.10;;;;;;5086921;28;20032;-73
2022/06/01 03:03:58;;;;;;;0.40;0.40;;;24.00;59.60;;;;;;5078831;28;21333;-73
2022/06/01 03:06:25;;;;;;;0.22;0.15;;;24.10;59.40;;;;;;5083805;28;20039;-74
2022/06/01 03:08:50;;;;;;;2.70;0.90;;;23.60;61.30;;;;;;5085286;28;20462;-74
2022/06/01 03:11:17;;;;;;;1.25;0.85;;;23.70;61.80;;;;;;5083313;28;20460;-74
2022/06/01 03:13:43;;;;;;;0.08;0.08;;;23.50;62.60;;;;;;5083162;28;20035;-73
2022/06/01 03:16:09;;;;;;;0.15;0.10;;;23.50;64.80;;;;;;5082623;28;20036;-73
2022/06/01 03:18:35;;;;;;;0.55;0.38;;;23.90;65.00;;;;;;5085332;28;20016;-71
2022/06/01 03:21:01;;;;;;;0.25;0.25;;;24.30;60.20;;;;;;5077650;28;20134;-72
2022/06/01 03:23:27;;;;;;;0.65;0.40;;;24.40;60.60;;;;;;5074245;28;20031;-72
2022/06/01 03:25:53;;;;;;;0.85;0.30;;;24.80;60.00;;;;;;5081033;28;20060;-72
2022/06/01 03:28:19;;;;;;;0.00;0.00;;;24.60;58.90;;;;;;5081045;28;20062;-73
2022/06/01 03:30:45;;;;;;;1.25;0.75;;;24.30;60.00;;;;;;5081986;28;20035;-74
2022/06/01 03:33:17;;;;;;;0.00;0.00;;;24.50;60.30;;;;;;5082278;28;20043;-72
2022/06/01 03:35:43;;;;;;;1.85;0.85;;;24.10;62.50;;;;;;5082870;28;20159;-71
2022/06/01 03:38:09;;;;;;;0.85;0.47;;;24.20;64.40;;;;;;5069609;28;20114;-74
2022/06/01 03:40:37;;;;;;;1.63;0.60;;;24.40;65.10;;;;;;5086226;28;20021;-74
2022/06/01 03:43:04;;;;;;;2.50;0.50;;;24.60;63.00;;;;;;5084961;28;20020;-74
2022/06/01 03:48:15;;;;;;;0.68;0.55;;;24.60;62.70;;;;;;5080793;28;20134;-73
2022/06/01 03:50:41;;;;;;;0.55;0.35;;;24.00;62.40;;;;;;5062959;28;20357;-74
2022/06/01 03:53:08;;;;;;;0.13;0.13;;;23.70;64.50;;;;;;5084642;28;20111;-73
2022/06/01 03:55:37;;;;;;;0.65;0.20;;;23.30;66.20;;;;;;5080578;28;20035;-75
2022/06/01 03:58:04;;;;;;;0.00;0.00;;;23.30;67.30;;;;;;5081969;28;20441;-73
2022/06/01 04:00:33;;;;;;;0.13;0.13;;;23.50;66.80;;;;;;5077551;28;20287;-74
2022/06/01 04:02:59;;;;;;;0.00;0.00;;;23.90;65.80;;;;;;5077892;28;20035;-75
2022/06/01 04:05:26;;;;;;;0.10;0.08;;;24.10;61.40;;;;;;5075474;28;20028;-74
2022/06/01 04:07:52;;;;;;;0.30;0.30;;;24.40;61.80;;;;;;5082820;28;20039;-74
2022/06/01 04:10:20;;;;;;;0.85;0.32;;;24.20;62.10;;;;;;5082349;28;20149;-74
2022/06/01 04:12:46;;;;;;;0.05;0.05;;;24.20;60.80;;;;;;5078930;28;20027;-74
2022/06/01 04:15:12;;;;;;;2.53;1.30;;;24.30;63.70;;;;;;5076186;28;20024;-74
2022/06/01 04:17:38;;;;;;;0.00;0.00;;;24.10;63.30;;;;;;5076071;28;20184;-73
2022/06/01 04:20:06;;;;;;;0.00;0.00;;;24.20;61.70;;;;;;5075902;28;20741;-73
2022/06/01 04:22:34;;;;;;;0.35;0.20;;;24.50;64.20;;;;;;5073466;28;20028;-75
2022/06/01 04:25:01;;;;;;;0.47;0.38;;;24.50;60.60;;;;;;5075306;28;20391;-74
2022/06/01 04:27:27;;;;;;;0.00;0.00;;;24.40;59.30;;;;;;5079222;28;20032;-74
2022/06/01 04:29:53;;;;;;;0.20;0.17;;;24.20;61.70;;;;;;5077543;28;20036;-74
2022/06/01 04:32:28;;;;;;;1.00;0.45;;;24.40;61.50;;;;;;5073777;28;20028;-73
2022/06/01 04:34:54;;;;;;;0.30;0.17;;;24.50;58.40;;;;;;5062711;28;20075;-74
2022/06/01 04:37:20;;;;;;;0.00;0.00;;;24.50;58.70;;;;;;5078022;28;20028;-73
2022/06/01 04:39:46;;;;;;;0.73;0.73;;;24.90;57.40;;;;;;5077544;28;20028;-73
2022/06/01 04:42:12;;;;;;;0.00;0.00;;;25.10;55.20;;;;;;5078611;28;20035;-74
2022/06/01 04:44:40;;;;;;;0.00;0.00;;;25.20;54.50;;;;;;5078335;28;20419;-74
2022/06/01 04:47:08;;;;;;;0.70;0.00;;;25.10;54.60;;;;;;5081516;28;20060;-73
2022/06/01 04:49:34;;;;;;;1.13;0.70;;;25.10;50.50;;;;;;5084522;28;20451;-73
2022/06/01 04:52:00;;;;;;;1.45;0.85;;;25.10;53.20;;;;;;5081472;28;20043;-73
2022/06/01 04:54:26;;;;;;;0.00;0.00;;;24.90;50.50;;;;;;5081371;28;20496;-73
2022/06/01 04:56:52;;;;;;;0.20;0.10;;;24.80;53.40;;;;;;5081015;28;20073;-72
2022/06/01 04:59:18;;;;;;;0.00;0.00;;;25.20;53.80;;;;;;5081929;28;20017;-74
2022/06/01 05:01:45;;;;;;;0.00;0.00;;;25.10;51.40;;;;;;5080413;28;20103;-74
2022/06/01 05:04:12;;;;;;;0.47;0.40;;;25.10;52.40;;;;;;5081505;28;20032;-73
2022/06/01 05:06:38;;;;;;;0.30;0.30;;;25.50;48.50;;;;;;5085263;28;20097;-74
2022/06/01 05:09:04;;;;;;;1.30;0.73;;;25.40;46.80;;;;;;5081702;28;20058;-73
2022/06/01 05:11:30;;;;;;;0.00;0.00;;;25.40;45.90;;;;;;5080523;28;20050;-73
2022/06/01 05:13:57;;;;;;;0.00;0.00;;;25.40;45.30;;;;;;5083361;28;20032;-74
2022/06/01 05:16:23;;;;;;;0.20;0.20;;;25.40;47.20;;;;;;5080686;28;20549;-74
2022/06/01 05:18:49;;;;;;;0.00;0.00;;;25.60;46.10;;;;;;5084053;28;20036;-73
2022/06/01 05:21:15;;;;;;;0.00;0.00;;;25.70;46.50;;;;;;5067927;28;20024;-73
2022/06/01 05:23:41;;;;;;;0.00;0.00;;;25.40;47.00;;;;;;5087994;28;20144;-74
2022/06/01 05:26:07;;;;;;;0.00;0.00;;;25.50;48.20;;;;;;5085770;28;20074;-73
2022/06/01 05:28:34;;;;;;;1.80;1.65;;;25.60;48.80;;;;;;5086863;28;20032;-73
2022/06/01 05:31:06;;;;;;;0.00;0.00;;;25.70;49.40;;;;;;5084939;28;20024;-73
2022/06/01 05:33:32;;;;;;;0.80;0.10;;;25.20;51.20;;;;;;5085092;28;20020;-73
2022/06/01 05:35:58;;;;;;;0.00;0.00;;;25.50;49.10;;;;;;5084915;28;20028;-73
2022/06/01 05:38:24;;;;;;;0.30;0.30;;;25.40;49.40;;;;;;5081700;28;20027;-74
2022/06/01 05:40:51;;;;;;;2.53;0.57;;;25.50;49.40;;;;;;5086004;28;20375;-74
2022/06/01 05:43:17;;;;;;;0.10;0.10;;;25.90;49.10;;;;;;5084259;28;20406;-73
2022/06/01 05:45:44;;;;;;;0.10;0.10;;;25.90;48.60;;;;;;5085714;28;20413;-73
2022/06/01 05:48:13;;;;;;;0.20;0.20;;;25.70;48.80;;;;;;5083083;28;20024;-74
2022/06/01 05:50:39;;;;;;;0.00;0.00;;;25.70;49.00;;;;;;5083255;28;20127;-74
2022/06/01 05:53:05;;;;;;;3.90;1.45;;;25.90;51.10;;;;;;5084555;28;20036;-73
2022/06/01 05:55:31;;;;;;;0.00;0.00;;;25.90;48.80;;;;;;5083359;28;20016;-74
2022/06/01 05:57:58;;;;;;;3.60;1.08;;;25.90;50.10;;;;;;5082157;28;20028;-73
2022/06/01 06:00:24;;;;;;;0.05;0.05;;;25.90;50.00;;;;;;5082514;28;20028;-74
2022/06/01 06:02:50;;;;;;;0.00;0.00;;;25.90;46.90;;;;;;5082454;28;20031;-72
2022/06/01 06:08:02;;;;;;;0.00;0.00;;;25.90;48.00;;;;;;5077768;28;20047;-73
2022/06/01 06:10:28;;;;;;;0.88;0.50;;;26.00;48.30;;;;;;5087891;22;20048;-72
2022/06/01 06:12:54;;;;;;;0.00;0.00;;;26.00;48.10;;;;;;5067424;28;20029;-73
2022/06/01 06:15:21;;;;;;;0.10;0.10;;;26.00;48.10;;;;;;5069568;28;20033;-74
2022/06/01 06:17:47;;;;;;;0.45;0.15;;;25.70;48.40;;;;;;5069373;28;20086;-73
2022/06/01 06:20:14;;;;;;;0.32;0.30;;;25.80;51.60;;;;;;5065021;28;20368;-74
2022/06/01 06:22:41;;;;;;;0.05;0.05;;;26.30;47.50;;;;;;5065724;28;20035;-75
2022/06/01 06:25:07;;;;;;;0.00;0.00;;;26.20;47.70;;;;;;5071631;28;20194;-75
2022/06/01 06:27:33;;;;;;;1.15;0.20;;;25.70;47.30;;;;;;5066877;28;20361;-75
2022/06/01 06:29:59;;;;;;;0.10;0.10;;;25.90;48.10;;;;;;5074531;28;20476;-73
2022/06/01 06:32:28;;;;;;;0.00;0.00;;;25.70;48.30;;;;;;5065277;28;20029;-73
2022/06/01 06:34:54;;;;;;;1.80;1.75;;;25.90;49.00;;;;;;5066622;28;20047;-74
2022/06/01 06:37:20;;;;;;;8.90;0.65;;;26.20;47.00;;;;;;5067521;28;20032;-73
2022/06/01 06:39:47;;;;;;;0.00;0.00;;;26.00;47.40;;;;;;5068625;28;20024;-73
2022/06/01 06:42:13;;;;;;;2.45;0.93;;;26.10;48.20;;;;;;5065008;28;20032;-74
2022/06/01 06:44:40;;;;;;;0.47;0.25;;;26.30;45.70;;;;;;5063502;28;20071;-74
2022/06/01 06:47:06;;;;;;;0.22;0.17;;;26.50;45.10;;;;;;5062055;28;20025;-73
2022/06/01 06:49:32;;;;;;;0.65;0.50;;;26.60;44.80;;;;;;5066055;28;20116;-73
2022/06/01 06:51:58;;;;;;;3.30;1.88;;;26.40;44.40;;;;;;5068677;28;20032;-73
2022/06/01 06:54:25;;;;;;;0.10;0.00;;;26.10;45.60;;;;;;5063008;28;20032;-73
2022/06/01 06:56:51;;;;;;;0.70;0.70;;;26.40;43.80;;;;;;5071084;28;20023;-73
2022/06/01 06:59:17;;;;;;;0.17;0.10;;;26.70;42.90;;;;;;5068027;28;20024;-73
2022/06/01 07:01:44;;;;;;;0.00;0.00;;;26.80;43.10;;;;;;5040589;28;20027;-74
2022/06/01 07:04:10;;;;;;;0.00;0.00;;;27.00;43.40;;;;;;5063664;28;20024;-73
2022/06/01 07:06:39;;;;;;;0.00;0.00;;;26.50;43.90;;;;;;5065612;28;20117;-73
2022/06/01 07:09:05;;;;;;;0.00;0.00;;;26.70;44.90;;;;;;5068967;28;20024;-73
2022/06/01 07:11:32;;;;;;;1.00;0.60;;;26.70;43.40;;;;;;5067565;28;20715;-73
2022/06/01 07:13:58;;;;;;;0.00;0.00;;;26.70;41.90;;;;;;5064921;28;20032;-75
2022/06/01 07:16:28;;;;;;;0.80;0.80;;;26.80;42.70;;;;;;5063942;28;20368;-74
2022/06/01 07:18:55;;;;;;;0.00;0.00;;;26.80;41.60;;;;;;5065242;28;20020;-74
2022/06/01 07:21:22;;;;;;;0.63;0.57;;;26.90;39.30;;;;;;5071831;28;20028;-74
2022/06/01 07:23:49;;;;;;;0.10;0.00;;;26.90;40.90;;;;;;5064481;28;20027;-74
2022/06/01 07:26:27;;;;;;;0.00;0.00;;;27.00;38.60;;;;;;5065273;28;20036;-74
2022/06/01 07:28:54;;;;;;;0.00;0.00;;;27.00;36.80;;;;;;5063404;28;20020;-74
2022/06/01 07:31:22;;;;;;;0.10;0.03;;;27.20;36.00;;;;;;5060354;28;20099;-74
2022/06/01 07:33:48;;;;;;;0.00;0.00;;;27.10;33.50;;;;;;5046182;28;20541;-73
2022/06/01 07:36:16;;;;;;;0.08;0.08;;;26.80;35.00;;;;;;5067904;28;20028;-73
2022/06/01 07:44:22;;;;;;;0.00;0.00;;;27.40;37.00;;;;;;5056417;28;20075;-74
2022/06/01 07:46:48;;;;;;;0.00;0.00;;;27.70;36.80;;;;;;5060305;28;20372;-74
2022/06/01 07:49:15;;;;;;;0.75;0.03;;;27.70;36.80;;;;;;5064213;28;20116;-73
2022/06/01 07:51:42;;;;;;;0.00;0.00;;;27.40;35.30;;;;;;5065605;28;20033;-72
2022/06/01 07:54:08;;;;;;;0.20;0.20;;;26.80;37.20;;;;;;5067962;28;20033;-74
2022/06/01 07:56:35;;;;;;;0.00;0.00;;;27.00;36.00;;;;;;5065943;28;20035;-74
2022/06/01 07:59:01;;;;;;;0.00;0.00;;;27.10;31.80;;;;;;5065818;28;20035;-74
2022/06/01 08:01:27;;;;;;;0.00;0.00;;;27.30;35.70;;;;;;5063663;28;20283;-75
2022/06/01 08:03:58;;;;;;;0.15;0.10;;;27.40;36.90;;;;;;5066058;28;20031;-73
2022/06/01 08:06:28;;;;;;;0.00;0.00;;;27.30;38.50;;;;;;5071933;28;20039;-72
2022/06/01 08:08:55;;;;;;;0.90;0.35;;;27.60;38.80;;;;;;5065706;28;20024;-73
2022/06/01 08:13:06;;;;;;;0.00;0.00;;;27.50;39.20;;;;;;5059495;28;20070;-75
2022/06/01 08:14:09;;;;;;;0.00;0.00;;;27.20;38.30;;;;;;5060515;28;20468;-75
2022/06/01 08:16:35;;;;;;;1.35;0.63;;;27.50;36.20;;;;;;5063908;28;20028;-73
2022/06/01 08:19:01;;;;;;;0.00;0.00;;;27.60;35.80;;;;;;5064436;28;20035;-72
2022/06/01 08:21:27;;;;;;;0.30;0.30;;;27.70;35.70;;;;;;5065787;28;20085;-73
2022/06/01 08:23:53;;;;;;;0.15;0.15;;;27.70;36.60;;;;;;5059727;28;20547;-73
2022/06/01 08:26:19;;;;;;;0.40;0.30;;;27.40;36.80;;;;;;5054074;28;20039;-72
2022/06/01 08:28:45;;;;;;;1.60;0.35;;;27.30;37.50;;;;;;5058981;28;20169;-74
2022/06/01 08:31:12;;;;;;;0.00;0.00;;;27.10;39.40;;;;;;5057124;28;20476;-74
2022/06/01 08:33:38;;;;;;;16.55;4.40;;;27.30;37.60;;;;;;5056208;28;20086;-73
2022/06/01 08:36:04;;;;;;;0.10;0.10;;;27.30;40.50;;;;;;5058075;28;20629;-74
2022/06/01 08:38:30;;;;;;;0.43;0.20;;;27.50;41.40;;;;;;5059698;28;20338;-72
2022/06/01 08:41:07;;;;;;;0.00;0.00;;;27.70;39.30;;;;;;5062810;28;20025;-74
2022/06/01 08:43:45;;;;;;;0.00;0.00;;;27.80;36.90;;;;;;5057116;28;20062;-73
2022/06/01 08:46:13;;;;;;;0.00;0.00;;;27.90;37.10;;;;;;5060714;28;20529;-72
2022/06/01 08:48:52;;;;;;;0.00;0.00;;;28.20;36.60;;;;;;5060246;28;20880;-73
2022/06/01 08:51:23;;;;;;;0.00;0.00;;;28.50;34.90;;;;;;5061376;28;20040;-73
2022/06/01 08:53:49;;;;;;;0.00;0.00;;;28.70;35.30;;;;;;5059675;28;20067;-75
2022/06/01 08:56:20;;;;;;;0.00;0.00;;;28.80;33.90;;;;;;5068463;28;20065;-75
2022/06/01 08:59:13;;;;;;;0.00;0.00;;;28.60;34.60;;;;;;5064343;28;20024;-74
2022/06/01 09:01:47;;;;;;;0.00;0.00;;;28.20;33.90;;;;;;5064761;28;20487;-74
2022/06/01 09:04:40;;;;;;;0.00;0.00;;;28.30;34.80;;;;;;5060609;28;20384;-74
2022/06/01 09:07:26;;;;;;;0.10;0.03;;;28.50;33.70;;;;;;5065732;28;20454;-75
2022/06/01 09:10:01;;;;;;;0.00;0.00;;;28.30;32.80;;;;;;5060759;28;20090;-74
2022/06/01 09:12:28;;;;;;;0.00;0.00;;;28.20;33.00;;;;;;5067657;28;20119;-74
2022/06/01 09:14:57;;;;;;;0.30;0.00;;;28.30;32.60;;;;;;5069058;28;20024;-74
2022/06/01 09:17:24;;;;;;;0.28;0.15;;;28.50;33.50;;;;;;5066415;28;20033;-76
2022/06/01 09:22:42;;;;;;;0.00;0.00;;;27.60;33.20;;;;;;5065294;28;20040;-75
2022/06/01 09:25:25;;;;;;;0.00;0.00;;;27.50;34.60;;;;;;5070548;28;20090;-72
2022/06/01 09:27:59;;;;;;;0.00;0.00;;;27.90;34.80;;;;;;5066659;28;20468;-74
2022/06/01 09:30:36;;;;;;;0.00;0.00;;;28.30;33.60;;;;;;5074167;28;20035;-74
2022/06/01 09:33:22;;;;;;;0.00;0.00;;;28.40;32.30;;;;;;5071095;28;20029;-74
2022/06/01 09:36:02;;;;;;;0.00;0.00;;;28.40;32.20;;;;;;5068875;28;20500;-74
2022/06/01 09:38:49;;;;;;;0.00;0.00;;;28.40;33.40;;;;;;5066638;28;20042;-74
2022/06/01 09:41:24;;;;;;;0.00;0.00;;;28.20;33.00;;;;;;5065606;28;20033;-74
2022/06/01 09:44:11;;;;;;;0.00;0.00;;;28.10;33.70;;;;;;5069432;28;20025;-74
2022/06/01 09:46:40;;;;;;;0.00;0.00;;;28.40;34.30;;;;;;5069675;28;20493;-74
2022/06/01 09:49:19;;;;;;;0.00;0.00;;;28.50;33.50;;;;;;5070120;28;21529;-72
2022/06/01 09:51:48;;;;;;;0.20;0.00;;;28.50;33.80;;;;;;5071954;28;20031;-74
2022/06/01 09:54:23;;;;;;;0.20;0.20;;;28.60;34.00;;;;;;5066554;28;20480;-74
2022/06/01 09:56:50;;;;;;;0.00;0.00;;;28.20;34.00;;;;;;5068008;28;20435;-74
2022/06/01 10:08:26;;;;;;;0.00;0.00;;;28.30;33.70;;;;;;5071386;28;20039;-73
2022/06/01 10:11:27;;;;;;;0.00;0.00;;;28.20;33.60;;;;;;5068993;28;20099;-73
2022/06/01 10:14:01;;;;;;;0.00;0.00;;;28.20;33.90;;;;;;5050211;28;20048;-73
2022/06/01 10:16:44;;;;;;;0.00;0.00;;;28.00;34.60;;;;;;5051632;28;20024;-72
2022/06/01 10:19:13;;;;;;;0.00;0.00;;;28.10;34.10;;;;;;5067960;28;20357;-73
2022/06/01 10:22:07;;;;;;;0.00;0.00;;;28.30;34.40;;;;;;5064753;28;20468;-73
2022/06/01 10:24:43;;;;;;;0.00;0.00;;;27.90;35.00;;;;;;5069005;28;20029;-74
2022/06/01 10:27:11;;;;;;;0.00;0.00;;;27.90;36.20;;;;;;5063570;28;20021;-74
2022/06/01 10:29:46;;;;;;;0.40;0.20;;;27.90;34.80;;;;;;5067287;28;20040;-74
2022/06/01 10:32:30;;;;;;;0.00;0.00;;;28.00;35.10;;;;;;5069488;28;20422;-74
2022/06/01 10:35:14;;;;;;;0.00;0.00;;;27.80;34.00;;;;;;5074014;28;20028;-73
2022/06/01 10:38:17;;;;;;;0.00;0.00;;;27.70;34.30;;;;;;5077156;28;20032;-75
2022/06/01 10:41:00;;;;;;;0.00;0.00;;;27.80;34.10;;;;;;5030897;28;20503;-74
2022/06/01 10:43:39;;;;;;;0.00;0.00;;;27.80;33.90;;;;;;5066376;28;20019;-73
2022/06/01 10:46:11;;;;;;;0.00;0.00;;;27.80;33.60;;;;;;5062131;28;20406;-74
2022/06/01 10:48:46;;;;;;;0.00;0.00;;;27.60;34.10;;;;;;5062192;28;20035;-72
2022/06/01 10:51:31;;;;;;;0.00;0.00;;;27.50;34.70;;;;;;5062598;28;20040;-73
2022/06/01 10:54:24;;;;;;;0.00;0.00;;;27.50;34.50;;;;;;5066235;28;20016;-73
2022/06/01 10:56:50;;;;;;;0.00;0.00;;;27.50;35.30;;;;;;5024282;28;20040;-74
2022/06/01 10:59:17;;;;;;;0.00;0.00;;;27.50;34.10;;;;;;5067654;28;20054;-73
2022/06/01 11:02:11;;;;;;;0.00;0.00;;;27.50;34.00;;;;;;5062098;28;20032;-73
2022/06/01 11:05:13;;;;;;;0.00;0.00;;;27.50;35.00;;;;;;5066445;28;20048;-73
2022/06/01 11:08:02;;;;;;;0.00;0.00;;;27.60;34.80;;;;;;5066411;28;20033;-73
2022/06/01 11:10:43;;;;;;;0.00;0.00;;;27.40;34.30;;;;;;5068211;28;20044;-74
2022/06/01 11:13:27;;;;;;;0.00;0.00;;;27.40;35.10;;;;;;5063930;28;20028;-72
2022/06/01 11:16:14;;;;;;;0.00;0.00;;;27.50;35.60;;;;;;5064460;28;20029;-72
2022/06/01 11:19:03;;;;;;;0.00;0.00;;;27.60;35.40;;;;;;5064980;28;20016;-74
2022/06/01 11:22:10;;;;;;;0.00;0.00;;;27.70;35.50;;;;;;5064106;28;20435;-75
2022/06/01 11:24:55;;;;;;;0.00;0.00;;;27.40;35.10;;;;;;5055121;28;20049;-73
2022/06/01 11:27:21;;;;;;;0.32;0.32;;;27.30;36.30;;;;;;5064952;28;20468;-74
2022/06/01 11:30:02;;;;;;;0.00;0.00;;;27.30;35.10;;;;;;5063514;28;20024;-74
2022/06/01 11:32:54;;;;;;;0.00;0.00;;;27.30;35.70;;;;;;5063324;28;20068;-74
2022/06/01 11:35:28;;;;;;;0.00;0.00;;;27.20;35.20;;;;;;5051781;28;20044;-75
2022/06/01 11:38:20;;;;;;;0.00;0.00;;;27.20;35.40;;;;;;5067388;28;20380;-74
2022/06/01 11:41:16;;;;;;;0.00;0.00;;;27.20;34.10;;;;;;5060902;28;20073;-73
2022/06/01 11:43:55;;;;;;;0.00;0.00;;;27.30;35.80;;;;;;5062761;28;20496;-73
2022/06/01 11:46:50;;;;;;;0.00;0.00;;;27.50;36.20;;;;;;5067334;28;20362;-75
2022/06/01 11:49:37;;;;;;;0.63;0.25;;;27.50;35.10;;;;;;5060959;28;20143;-74
2022/06/01 11:52:20;;;;;;;0.00;0.00;;;27.10;34.50;;;;;;5063248;28;20029;-74
2022/06/01 11:55:15;;;;;;;0.00;0.00;;;27.00;34.80;;;;;;5062581;28;20024;-74
2022/06/01 11:57:54;;;;;;;0.03;0.03;;;27.00;34.60;;;;;;5047395;28;20076;-76
2022/06/01 12:01:02;;;;;;;0.00;0.00;;;27.00;36.00;;;;;;5058309;28;20028;-74
2022/06/01 12:03:39;;;;;;;0.00;0.00;;;27.20;36.30;;;;;;5055372;28;20159;-73
2022/06/01 12:06:37;;;;;;;0.00;0.00;;;27.30;36.10;;;;;;5063897;28;20029;-73
2022/06/01 12:09:04;;;;;;;0.00;0.00;;;27.40;35.30;;;;;;5065494;28;20040;-73
2022/06/01 12:11:39;;;;;;;0.00;0.00;;;27.40;35.30;;;;;;5062261;28;20045;-73
2022/06/01 12:14:55;;;;;;;0.00;0.00;;;27.40;36.00;;;;;;5060871;28;20150;-73
2022/06/01 12:17:28;;;;;;;0.00;0.00;;;27.30;36.00;;;;;;5017281;28;20595;-74
2022/06/01 12:20:19;;;;;;;0.00;0.00;;;27.30;35.70;;;;;;5064511;28;20021;-74
2022/06/01 12:29:09;;;;;;;0.00;0.00;;;26.90;38.60;;;;;;5074833;28;20419;-74
2022/06/01 12:31:39;;;;;;;0.00;0.00;;;26.90;37.80;;;;;;5067913;28;20490;-72
2022/06/01 12:34:17;;;;;;;0.00;0.00;;;26.90;36.80;;;;;;5068301;28;20028;-72
2022/06/01 12:36:54;;;;;;;0.00;0.00;;;26.80;38.10;;;;;;5070315;28;20056;-74
2022/06/01 12:39:34;;;;;;;0.40;0.40;;;26.90;37.70;;;;;;5066017;28;20036;-74
2022/06/01 12:42:26;;;;;;;0.00;0.00;;;27.00;37.40;;;;;;5067801;28;20383;-73
2022/06/01 12:44:53;;;;;;;0.00;0.00;;;27.10;37.60;;;;;;5061499;28;20062;-74
2022/06/01 12:47:29;;;;;;;0.00;0.00;;;27.00;38.10;;;;;;5066491;28;20035;-73
2022/06/01 12:49:56;;;;;;;0.00;0.00;;;27.20;38.00;;;;;;5067938;28;20032;-74
2022/06/01 12:52:25;;;;;;;0.00;0.00;;;27.30;39.20;;;;;;5063873;28;20039;-74
2022/06/01 12:54:50;;;;;;;0.00;0.00;;;27.40;37.90;;;;;;5068437;28;20028;-74
2022/06/01 12:57:37;;;;;;;0.00;0.00;;;27.30;39.40;;;;;;5059885;28;20025;-73
2022/06/01 13:00:18;;;;;;;0.00;0.00;;;26.80;41.30;;;;;;5060872;28;20462;-76
2022/06/01 13:02:45;;;;;;;0.00;0.00;;;26.70;41.20;;;;;;5067885;28;20036;-74
2022/06/01 13:05:19;;;;;;;0.00;0.00;;;26.60;41.60;;;;;;5062896;28;20528;-74
2022/06/01 13:07:50;;;;;;;1.13;1.08;;;26.50;42.50;;;;;;5068326;28;20025;-74
2022/06/01 13:10:24;;;;;;;0.95;0.20;;;26.20;43.30;;;;;;5066241;28;20132;-73
2022/06/01 13:13:00;;;;;;;0.43;0.43;;;26.00;43.60;;;;;;5058074;28;20100;-72
2022/06/01 13:15:27;;;;;;;0.38;0.38;;;25.70;43.50;;;;;;5071095;28;20031;-75
2022/06/01 13:17:59;;;;;;;0.00;0.00;;;25.60;44.50;;;;;;5065684;28;20024;-74
2022/06/01 13:20:40;;;;;;;0.00;0.00;;;25.50;44.40;;;;;;5066398;28;20024;-73
2022/06/01 13:23:27;;;;;;;0.00;0.00;;;25.60;44.20;;;;;;5070610;28;20111;-73
2022/06/01 13:26:03;;;;;;;0.00;0.00;;;25.70;44.10;;;;;;5068060;28;20033;-74
2022/06/01 13:28:30;;;;;;;0.00;0.00;;;25.70;43.70;;;;;;5068342;28;20480;-72
2022/06/01 13:30:58;;;;;;;0.00;0.00;;;25.80;43.90;;;;;;5067196;28;20461;-73
2022/06/01 13:33:38;;;;;;;0.00;0.00;;;25.90;44.20;;;;;;5061249;28;20487;-73
2022/06/01 13:36:10;;;;;;;0.00;0.00;;;25.90;44.30;;;;;;5061276;28;20036;-73
2022/06/01 13:38:49;;;;;;;0.00;0.00;;;25.70;44.80;;;;;;5067804;28;20021;-74
2022/06/01 13:41:21;;;;;;;0.00;0.00;;;25.50;45.30;;;;;;5069563;28;20060;-75
2022/06/01 13:43:49;;;;;;;0.00;0.00;;;25.60;46.00;;;;;;5072400;28;20036;-74
2022/06/01 13:46:37;;;;;;;0.00;0.00;;;25.50;45.90;;;;;;5073938;28;20024;-74
2022/06/01 13:49:08;;;;;;;0.00;0.00;;;25.60;45.70;;;;;;5067275;28;20127;-73